createdAt,value
2017-03-01T00:00:09.268Z,920.32
2017-03-01T00:01:23.704Z,920.32
2017-03-01T00:02:38.137Z,920.35
2017-03-01T00:03:52.557Z,920.41
2017-03-01T00:05:06.956Z,920.37
2017-03-01T00:06:20.788Z,920.36
2017-03-01T00:07:35.049Z,920.38
2017-03-01T00:08:50.171Z,920.42
2017-03-01T00:10:05.298Z,920.41
2017-03-01T00:11:21.211Z,920.45
2017-03-01T00:12:36.082Z,920.42
2017-03-01T00:13:50.823Z,920.45
2017-03-01T00:15:05.262Z,920.47
2017-03-01T00:16:19.680Z,920.49
2017-03-01T00:17:33.476Z,920.52
2017-03-01T00:18:47.928Z,920.53
2017-03-01T00:20:02.907Z,920.56
2017-03-01T00:21:18.400Z,920.63
2017-03-01T00:22:33.244Z,920.64
2017-03-01T00:23:47.710Z,920.65
2017-03-01T00:25:02.118Z,920.62
2017-03-01T00:26:16.772Z,920.64
2017-03-01T00:27:31.222Z,920.6
2017-03-01T00:28:45.409Z,920.61
2017-03-01T00:30:01.893Z,920.62
2017-03-01T00:31:16.522Z,920.67
2017-03-01T00:32:31.767Z,920.68
2017-03-01T00:33:47.709Z,920.7
2017-03-01T00:35:01.669Z,920.71
2017-03-01T00:36:15.437Z,920.73
2017-03-01T00:37:29.404Z,920.74
2017-03-01T00:38:44.222Z,920.73
2017-03-01T00:40:00.049Z,920.7
2017-03-01T00:41:14.931Z,920.75
2017-03-01T00:42:29.341Z,920.78
2017-03-01T00:43:44.036Z,920.8
2017-03-01T00:44:58.188Z,920.8
2017-03-01T00:46:13.830Z,920.83
2017-03-01T00:47:29.019Z,920.82
2017-03-01T00:48:43.454Z,920.82
2017-03-01T00:49:57.231Z,920.8
2017-03-01T00:51:11.214Z,920.8
2017-03-01T00:52:25.038Z,920.79
2017-03-01T00:53:40.750Z,920.81
2017-03-01T00:54:54.532Z,920.9
2017-03-01T00:56:08.918Z,920.92
2017-03-01T00:57:23.428Z,920.92
2017-03-01T00:58:37.850Z,920.99
2017-03-01T00:59:52.878Z,920.95
2017-03-01T01:01:07.356Z,920.95
2017-03-01T01:02:21.788Z,920.92
2017-03-01T01:03:35.755Z,920.9
2017-03-01T01:04:51.085Z,920.92
2017-03-01T01:06:06.495Z,920.93
2017-03-01T01:07:20.670Z,920.96
2017-03-01T01:08:35.880Z,920.94
2017-03-01T01:09:51.381Z,920.9
2017-03-01T01:11:06.283Z,920.89
2017-03-01T01:12:21.159Z,920.89
2017-03-01T01:13:36.254Z,920.86
2017-03-01T01:14:50.665Z,920.8
2017-03-01T01:16:05.095Z,920.77
2017-03-01T01:17:19.476Z,920.75
2017-03-01T01:18:33.726Z,920.75
2017-03-01T01:19:48.604Z,920.76
2017-03-01T01:21:03.010Z,920.77
2017-03-01T01:22:17.434Z,920.83
2017-03-01T01:23:31.474Z,920.85
2017-03-01T01:24:46.089Z,920.88
2017-03-01T01:26:00.489Z,920.91
2017-03-01T01:27:14.916Z,920.91
2017-03-01T01:28:30.009Z,920.99
2017-03-01T01:29:44.461Z,921.01
2017-03-01T01:30:58.945Z,921.07
2017-03-01T01:32:14.380Z,921.09
2017-03-01T01:33:29.457Z,921.16
2017-03-01T01:34:44.673Z,921.14
2017-03-01T01:35:59.478Z,921.18
2017-03-01T01:37:14.944Z,921.19
2017-03-01T01:38:29.830Z,921.23
2017-03-01T01:39:44.301Z,921.21
2017-03-01T01:40:58.089Z,921.23
2017-03-01T01:42:12.525Z,921.22
2017-03-01T01:43:26.948Z,921.25
2017-03-01T01:44:40.735Z,921.26
2017-03-01T01:45:55.160Z,921.29
2017-03-01T01:47:09.603Z,921.28
2017-03-01T01:48:24.030Z,921.3
2017-03-01T01:49:38.446Z,921.31
2017-03-01T01:50:53.466Z,921.32
2017-03-01T01:52:07.867Z,921.27
2017-03-01T01:53:22.321Z,921.27
2017-03-01T01:54:36.771Z,921.27
2017-03-01T01:55:51.450Z,921.32
2017-03-01T01:57:06.566Z,921.33
2017-03-01T01:58:22.247Z,921.35
2017-03-01T01:59:37.362Z,921.37
2017-03-01T02:00:52.466Z,921.41
2017-03-01T02:02:08.139Z,921.38
2017-03-01T02:03:23.832Z,921.4
2017-03-01T02:04:38.442Z,921.34
2017-03-01T02:05:53.482Z,921.37
2017-03-01T02:07:08.136Z,921.35
2017-03-01T02:08:23.214Z,921.32
2017-03-01T02:09:38.300Z,921.27
2017-03-01T02:10:53.488Z,921.29
2017-03-01T02:12:08.504Z,921.23
2017-03-01T02:13:22.920Z,921.16
2017-03-01T02:14:38.049Z,921.12
2017-03-01T02:15:53.553Z,921.08
2017-03-01T02:17:08.179Z,921.09
2017-03-01T02:18:24.135Z,921.05
2017-03-01T02:19:40.012Z,921.09
2017-03-01T02:20:54.912Z,921.1
2017-03-01T02:22:10.805Z,921.09
2017-03-01T02:23:24.878Z,921.15
2017-03-01T02:24:39.963Z,921.18
2017-03-01T02:25:54.433Z,921.11
2017-03-01T02:27:09.281Z,921.12
2017-03-01T02:28:24.544Z,921.07
2017-03-01T02:29:39.781Z,921.08
2017-03-01T02:30:54.830Z,921.14
2017-03-01T02:32:09.927Z,921.17
2017-03-01T02:33:25.123Z,921.2
2017-03-01T02:34:40.847Z,921.25
2017-03-01T02:35:55.967Z,921.23
2017-03-01T02:37:11.584Z,921.31
2017-03-01T02:38:27.090Z,921.32
2017-03-01T02:39:41.536Z,921.3
2017-03-01T02:40:55.977Z,921.29
2017-03-01T02:42:09.805Z,921.25
2017-03-01T02:43:24.254Z,921.22
2017-03-01T02:44:38.657Z,921.18
2017-03-01T02:45:53.065Z,921.15
2017-03-01T02:47:08.084Z,921.12
2017-03-01T02:48:23.152Z,921.08
2017-03-01T02:49:37.332Z,921.12
2017-03-01T02:50:51.728Z,921.15
2017-03-01T02:52:06.177Z,921.15
2017-03-01T02:53:21.084Z,921.17
2017-03-01T02:54:35.734Z,921.15
2017-03-01T02:55:50.139Z,921.18
2017-03-01T02:57:04.550Z,921.17
2017-03-01T02:58:19.159Z,921.16
2017-03-01T02:59:33.564Z,921.2
2017-03-01T03:00:48.022Z,921.21
2017-03-01T03:02:02.418Z,921.2
2017-03-01T03:03:16.810Z,921.17
2017-03-01T03:04:31.221Z,921.18
2017-03-01T03:05:45.608Z,921.18
2017-03-01T03:07:00.015Z,921.22
2017-03-01T03:08:14.433Z,921.27
2017-03-01T03:09:28.805Z,921.26
2017-03-01T03:10:43.234Z,921.26
2017-03-01T03:11:57.651Z,921.23
2017-03-01T03:13:11.468Z,921.23
2017-03-01T03:14:25.315Z,921.23
2017-03-01T03:15:39.793Z,921.25
2017-03-01T03:16:54.207Z,921.22
2017-03-01T03:18:08.635Z,921.26
2017-03-01T03:19:23.059Z,921.26
2017-03-01T03:20:37.524Z,921.21
2017-03-01T03:21:51.943Z,921.15
2017-03-01T03:23:06.335Z,921.15
2017-03-01T03:24:20.736Z,921.13
2017-03-01T03:25:33.888Z,921.13
2017-03-01T03:26:48.330Z,921.11
2017-03-01T03:28:02.720Z,921.07
2017-03-01T03:29:17.206Z,921.07
2017-03-01T03:30:31.604Z,921.03
2017-03-01T03:31:46.024Z,921.05
2017-03-01T03:33:00.468Z,921.07
2017-03-01T03:34:14.899Z,921.06
2017-03-01T03:35:29.342Z,921.06
2017-03-01T03:36:43.191Z,921.07
2017-03-01T03:37:57.647Z,921.04
2017-03-01T03:39:12.032Z,921.04
2017-03-01T03:40:25.842Z,921.03
2017-03-01T03:41:40.261Z,921
2017-03-01T03:42:54.655Z,921.01
2017-03-01T03:44:09.101Z,921.04
2017-03-01T03:45:22.942Z,921.01
2017-03-01T03:46:37.462Z,921.07
2017-03-01T03:47:51.869Z,921.04
2017-03-01T03:49:06.282Z,921.02
2017-03-01T03:50:20.708Z,920.96
2017-03-01T03:51:34.642Z,920.98
2017-03-01T03:52:48.448Z,920.96
2017-03-01T03:54:02.899Z,920.94
2017-03-01T03:55:16.648Z,920.95
2017-03-01T03:56:30.412Z,920.88
2017-03-01T03:57:44.858Z,920.88
2017-03-01T03:58:59.278Z,920.84
2017-03-01T04:00:13.708Z,920.84
2017-03-01T04:01:27.499Z,920.79
2017-03-01T04:02:41.897Z,920.78
2017-03-01T04:03:56.312Z,920.77
2017-03-01T04:05:10.096Z,920.74
2017-03-01T04:06:24.527Z,920.71
2017-03-01T04:07:38.960Z,920.68
2017-03-01T04:08:53.375Z,920.66
2017-03-01T04:10:07.180Z,920.67
2017-03-01T04:11:21.566Z,920.69
2017-03-01T04:12:35.325Z,920.63
2017-03-01T04:13:49.754Z,920.69
2017-03-01T04:15:03.507Z,920.65
2017-03-01T04:16:17.902Z,920.64
2017-03-01T04:17:32.306Z,920.69
2017-03-01T04:18:46.722Z,920.72
2017-03-01T04:20:01.142Z,920.72
2017-03-01T04:21:14.912Z,920.69
2017-03-01T04:22:29.350Z,920.67
2017-03-01T04:23:43.753Z,920.64
2017-03-01T04:24:58.157Z,920.61
2017-03-01T04:26:12.570Z,920.69
2017-03-01T04:27:26.340Z,920.7
2017-03-01T04:28:40.765Z,920.69
2017-03-01T04:30:13.832Z,920.7
2017-03-01T04:31:27.561Z,920.66
2017-03-01T04:32:41.324Z,920.59
2017-03-01T04:33:55.717Z,920.55
2017-03-01T04:35:15.764Z,920.46
2017-03-01T04:36:30.234Z,920.47
2017-03-01T04:37:44.636Z,920.48
2017-03-01T04:38:59.047Z,920.46
2017-03-01T04:40:13.512Z,920.36
2017-03-01T04:41:27.894Z,920.43
2017-03-01T04:42:41.684Z,920.26
2017-03-01T04:43:56.119Z,920.36
2017-03-01T04:45:10.558Z,920.33
2017-03-01T04:46:24.943Z,920.29
2017-03-01T04:47:38.728Z,920.34
2017-03-01T04:48:53.177Z,920.24
2017-03-01T04:50:07.622Z,920.28
2017-03-01T04:51:22.013Z,920.29
2017-03-01T04:52:36.599Z,920.32
2017-03-01T04:53:49.885Z,920.32
2017-03-01T04:55:04.283Z,920.38
2017-03-01T04:56:18.734Z,920.39
2017-03-01T04:57:33.176Z,920.3
2017-03-01T04:58:46.966Z,920.25
2017-03-01T05:00:01.370Z,920.21
2017-03-01T05:01:15.844Z,920.15
2017-03-01T05:02:30.258Z,920.14
2017-03-01T05:03:44.476Z,920.12
2017-03-01T05:04:58.923Z,920.08
2017-03-01T05:06:12.747Z,920.12
2017-03-01T05:07:27.178Z,920.09
2017-03-01T05:08:41.590Z,920.16
2017-03-01T05:09:55.359Z,920.12
2017-03-01T05:11:09.148Z,920.12
2017-03-01T05:12:23.559Z,920.13
2017-03-01T05:13:37.953Z,920.09
2017-03-01T05:14:52.370Z,920.07
2017-03-01T05:16:06.759Z,920.03
2017-03-01T05:17:21.122Z,919.98
2017-03-01T05:18:35.548Z,919.97
2017-03-01T05:19:49.336Z,919.97
2017-03-01T05:21:03.753Z,919.94
2017-03-01T05:22:18.208Z,919.91
2017-03-01T05:23:31.988Z,919.89
2017-03-01T05:24:45.149Z,919.86
2017-03-01T05:25:59.549Z,919.85
2017-03-01T05:27:13.985Z,919.82
2017-03-01T05:28:28.440Z,919.84
2017-03-01T05:29:42.894Z,919.82
2017-03-01T05:30:57.293Z,919.82
2017-03-01T05:32:11.693Z,919.79
2017-03-01T05:33:26.106Z,919.76
2017-03-01T05:34:39.870Z,919.75
2017-03-01T05:35:54.285Z,919.73
2017-03-01T05:37:08.708Z,919.77
2017-03-01T05:38:23.102Z,919.78
2017-03-01T05:39:37.502Z,919.75
2017-03-01T05:40:51.905Z,919.76
2017-03-01T05:42:06.349Z,919.75
2017-03-01T05:43:19.441Z,919.78
2017-03-01T05:44:33.910Z,919.76
2017-03-01T05:45:48.305Z,919.79
2017-03-01T05:47:02.769Z,919.78
2017-03-01T05:48:17.178Z,919.75
2017-03-01T05:49:31.595Z,919.77
2017-03-01T05:50:45.996Z,919.77
2017-03-01T05:52:00.435Z,919.74
2017-03-01T05:53:14.822Z,919.72
2017-03-01T05:54:29.240Z,919.73
2017-03-01T05:55:43.672Z,919.75
2017-03-01T05:56:58.089Z,919.76
2017-03-01T05:58:12.507Z,919.74
2017-03-01T05:59:26.935Z,919.77
2017-03-01T06:00:41.350Z,919.76
2017-03-01T06:01:55.770Z,919.79
2017-03-01T06:03:10.232Z,919.78
2017-03-01T06:04:24.678Z,919.78
2017-03-01T06:05:39.111Z,919.74
2017-03-01T06:06:53.566Z,919.7
2017-03-01T06:08:08.045Z,919.69
2017-03-01T06:09:22.489Z,919.63
2017-03-01T06:10:36.885Z,919.65
2017-03-01T06:11:50.674Z,919.65
2017-03-01T06:13:05.123Z,919.57
2017-03-01T06:14:18.915Z,919.55
2017-03-01T06:15:32.715Z,919.56
2017-03-01T06:16:46.525Z,919.58
2017-03-01T06:18:00.977Z,919.5
2017-03-01T06:19:14.759Z,919.51
2017-03-01T06:20:29.163Z,919.48
2017-03-01T06:21:43.592Z,919.46
2017-03-01T06:22:57.988Z,919.44
2017-03-01T06:24:12.424Z,919.46
2017-03-01T06:25:26.863Z,919.45
2017-03-01T06:26:40.618Z,919.5
2017-03-01T06:27:54.307Z,919.52
2017-03-01T06:29:08.699Z,919.52
2017-03-01T06:30:23.128Z,919.57
2017-03-01T06:31:36.898Z,919.57
2017-03-01T06:32:51.318Z,919.64
2017-03-01T06:34:05.763Z,919.67
2017-03-01T06:35:19.535Z,919.64
2017-03-01T06:36:33.969Z,919.68
2017-03-01T06:37:47.743Z,919.66
2017-03-01T06:39:02.162Z,919.6
2017-03-01T06:40:16.561Z,919.62
2017-03-01T06:41:30.996Z,919.59
2017-03-01T06:42:45.422Z,919.65
2017-03-01T06:43:59.786Z,919.64
2017-03-01T06:45:14.227Z,919.68
2017-03-01T06:46:28.059Z,919.64
2017-03-01T06:47:41.805Z,919.65
2017-03-01T06:48:55.571Z,919.66
2017-03-01T06:50:10.040Z,919.65
2017-03-01T06:51:23.184Z,919.67
2017-03-01T06:52:37.588Z,919.61
2017-03-01T06:53:51.987Z,919.61
2017-03-01T06:55:06.455Z,919.58
2017-03-01T06:56:20.878Z,919.57
2017-03-01T06:57:35.299Z,919.57
2017-03-01T06:58:49.086Z,919.5
2017-03-01T07:00:03.485Z,919.61
2017-03-01T07:01:17.921Z,919.64
2017-03-01T07:02:32.371Z,919.62
2017-03-01T07:03:46.148Z,919.63
2017-03-01T07:05:00.564Z,919.64
2017-03-01T07:06:14.943Z,919.6
2017-03-01T07:07:29.382Z,919.62
2017-03-01T07:08:43.822Z,919.61
2017-03-01T07:09:58.268Z,919.62
2017-03-01T07:11:12.685Z,919.66
2017-03-01T07:12:26.485Z,919.65
2017-03-01T07:13:40.936Z,919.63
2017-03-01T07:14:55.347Z,919.62
2017-03-01T07:16:09.106Z,919.65
2017-03-01T07:17:23.514Z,919.61
2017-03-01T07:18:37.338Z,919.63
2017-03-01T07:19:51.760Z,919.65
2017-03-01T07:21:06.251Z,919.62
2017-03-01T07:22:20.690Z,919.62
2017-03-01T07:23:35.112Z,919.57
2017-03-01T07:24:49.534Z,919.57
2017-03-01T07:26:03.963Z,919.55
2017-03-01T07:27:18.420Z,919.58
2017-03-01T07:28:32.181Z,919.58
2017-03-01T07:29:46.616Z,919.57
2017-03-01T07:31:01.010Z,919.58
2017-03-01T07:32:15.395Z,919.62
2017-03-01T07:33:29.160Z,919.58
2017-03-01T07:34:42.960Z,919.57
2017-03-01T07:35:57.419Z,919.52
2017-03-01T07:37:11.836Z,919.59
2017-03-01T07:38:26.232Z,919.55
2017-03-01T07:39:40.679Z,919.52
2017-03-01T07:40:54.465Z,919.53
2017-03-01T07:42:08.856Z,919.55
2017-03-01T07:43:23.267Z,919.52
2017-03-01T07:44:36.413Z,919.55
2017-03-01T07:45:50.812Z,919.57
2017-03-01T07:47:05.221Z,919.57
2017-03-01T07:48:19.632Z,919.6
2017-03-01T07:49:33.387Z,919.62
2017-03-01T07:50:47.798Z,919.62
2017-03-01T07:52:02.231Z,919.58
2017-03-01T07:53:16.026Z,919.58
2017-03-01T07:54:30.432Z,919.59
2017-03-01T07:55:44.916Z,919.6
2017-03-01T07:56:58.692Z,919.63
2017-03-01T07:58:13.103Z,919.62
2017-03-01T07:59:26.850Z,919.64
2017-03-01T08:00:41.277Z,919.65
2017-03-01T08:01:55.103Z,919.63
2017-03-01T08:03:08.908Z,919.69
2017-03-01T08:04:22.682Z,919.69
2017-03-01T08:05:36.461Z,919.65
2017-03-01T08:06:50.918Z,919.66
2017-03-01T08:08:05.323Z,919.68
2017-03-01T08:09:19.742Z,919.73
2017-03-01T08:10:33.465Z,919.74
2017-03-01T08:11:47.910Z,919.77
2017-03-01T08:13:02.358Z,919.79
2017-03-01T08:14:16.775Z,919.77
2017-03-01T08:15:29.899Z,919.81
2017-03-01T08:16:43.032Z,919.71
2017-03-01T08:17:56.792Z,919.74
2017-03-01T08:19:11.183Z,919.69
2017-03-01T08:20:25.596Z,919.73
2017-03-01T08:21:39.405Z,919.75
2017-03-01T08:22:53.153Z,919.78
2017-03-01T08:24:07.590Z,919.82
2017-03-01T08:25:21.385Z,919.82
2017-03-01T08:26:35.175Z,919.81
2017-03-01T08:27:49.559Z,919.78
2017-03-01T08:29:03.953Z,919.81
2017-03-01T08:30:18.368Z,919.81
2017-03-01T08:31:32.799Z,919.86
2017-03-01T08:32:47.228Z,919.9
2017-03-01T08:34:00.967Z,919.93
2017-03-01T08:35:15.385Z,919.97
2017-03-01T08:36:29.808Z,920
2017-03-01T08:37:44.245Z,920.06
2017-03-01T08:38:58.666Z,920.05
2017-03-01T08:40:13.119Z,920.11
2017-03-01T08:41:27.597Z,920.09
2017-03-01T08:42:41.979Z,920.14
2017-03-01T08:43:56.390Z,920.13
2017-03-01T08:45:10.813Z,920.16
2017-03-01T08:46:25.198Z,920.2
2017-03-01T08:47:39.644Z,920.25
2017-03-01T08:48:54.076Z,920.22
2017-03-01T08:50:08.547Z,920.22
2017-03-01T08:51:22.958Z,920.24
2017-03-01T08:52:37.376Z,920.19
2017-03-01T08:53:51.143Z,920.15
2017-03-01T08:55:04.313Z,920.19
2017-03-01T08:56:18.736Z,920.21
2017-03-01T08:57:32.495Z,920.19
2017-03-01T08:58:46.914Z,920.2
2017-03-01T09:00:01.312Z,920.22
2017-03-01T09:01:15.072Z,920.24
2017-03-01T09:02:28.929Z,920.3
2017-03-01T09:03:43.328Z,920.33
2017-03-01T09:04:57.780Z,920.3
2017-03-01T09:06:12.188Z,920.31
2017-03-01T09:07:25.938Z,920.34
2017-03-01T09:08:40.347Z,920.37
2017-03-01T09:09:54.819Z,920.42
2017-03-01T09:11:09.270Z,920.45
2017-03-01T09:12:23.688Z,920.48
2017-03-01T09:13:37.459Z,920.57
2017-03-01T09:14:51.878Z,920.61
2017-03-01T09:16:06.303Z,920.66
2017-03-01T09:17:19.435Z,920.73
2017-03-01T09:18:33.203Z,920.77
2017-03-01T09:19:47.572Z,920.79
2017-03-01T09:21:01.972Z,920.78
2017-03-01T09:22:16.384Z,920.78
2017-03-01T09:23:30.815Z,920.8
2017-03-01T09:24:45.228Z,920.83
2017-03-01T09:25:59.668Z,920.84
2017-03-01T09:27:14.078Z,920.85
2017-03-01T09:28:28.468Z,920.81
2017-03-01T09:29:42.230Z,920.87
2017-03-01T09:30:56.638Z,920.86
2017-03-01T09:32:11.062Z,920.88
2017-03-01T09:33:25.435Z,920.93
2017-03-01T09:34:39.846Z,920.91
2017-03-01T09:35:53.604Z,920.96
2017-03-01T09:37:07.987Z,920.93
2017-03-01T09:38:21.780Z,921.01
2017-03-01T09:39:36.188Z,921.01
2017-03-01T09:40:49.961Z,920.93
2017-03-01T09:42:03.742Z,921
2017-03-01T09:43:17.529Z,921.03
2017-03-01T09:44:31.311Z,921.07
2017-03-01T09:45:45.112Z,921.08
2017-03-01T09:46:58.877Z,921.1
2017-03-01T09:48:12.633Z,921.11
2017-03-01T09:49:27.042Z,921.1
2017-03-01T09:50:40.150Z,921.14
2017-03-01T09:51:54.598Z,921.1
2017-03-01T09:53:08.415Z,921.09
2017-03-01T09:54:22.840Z,921.08
2017-03-01T09:55:37.258Z,921.1
2017-03-01T09:56:49.781Z,921.11
2017-03-01T09:58:03.535Z,921.09
2017-03-01T09:59:17.938Z,921.09
2017-03-01T10:00:32.330Z,921.12
2017-03-01T10:01:46.755Z,921.11
2017-03-01T10:03:01.189Z,921.09
2017-03-01T10:04:15.587Z,921.1
2017-03-01T10:05:30.006Z,921.08
2017-03-01T10:06:43.788Z,921.04
2017-03-01T10:07:58.207Z,921.08
2017-03-01T10:09:12.022Z,921.1
2017-03-01T10:10:26.475Z,921.08
2017-03-01T10:11:40.271Z,921.11
2017-03-01T10:12:54.038Z,921.17
2017-03-01T10:14:08.445Z,921.18
2017-03-01T10:15:22.841Z,921.18
2017-03-01T10:16:37.257Z,921.18
2017-03-01T10:17:51.654Z,921.22
2017-03-01T10:19:05.443Z,921.24
2017-03-01T10:20:19.868Z,921.26
2017-03-01T10:21:34.296Z,921.24
2017-03-01T10:22:48.703Z,921.28
2017-03-01T10:24:03.116Z,921.31
2017-03-01T10:25:16.897Z,921.33
2017-03-01T10:26:31.316Z,921.39
2017-03-01T10:27:45.112Z,921.39
2017-03-01T10:28:58.935Z,921.41
2017-03-01T10:30:13.361Z,921.43
2017-03-01T10:31:26.471Z,921.43
2017-03-01T10:32:39.561Z,921.4
2017-03-01T10:33:54.013Z,921.43
2017-03-01T10:35:08.460Z,921.56
2017-03-01T10:36:22.876Z,921.44
2017-03-01T10:37:36.665Z,921.44
2017-03-01T10:38:51.037Z,921.43
2017-03-01T10:40:04.166Z,921.41
2017-03-01T10:41:18.579Z,921.47
2017-03-01T10:42:33.076Z,921.44
2017-03-01T10:43:46.869Z,921.44
2017-03-01T10:45:00.606Z,921.44
2017-03-01T10:46:15.104Z,921.44
2017-03-01T10:47:29.613Z,921.55
2017-03-01T10:48:44.038Z,921.57
2017-03-01T10:49:57.839Z,921.53
2017-03-01T10:51:10.970Z,921.59
2017-03-01T10:52:25.426Z,921.69
2017-03-01T10:53:39.838Z,921.67
2017-03-01T10:54:54.215Z,921.68
2017-03-01T10:56:08.626Z,921.65
2017-03-01T10:57:23.021Z,921.83
2017-03-01T10:58:37.474Z,921.76
2017-03-01T10:59:51.897Z,921.79
2017-03-01T11:01:06.320Z,921.78
2017-03-01T11:02:20.162Z,921.73
2017-03-01T11:03:34.603Z,921.82
2017-03-01T11:04:49.127Z,921.79
2017-03-01T11:06:03.530Z,921.79
2017-03-01T11:07:18.001Z,921.83
2017-03-01T11:08:31.766Z,921.76
2017-03-01T11:09:46.183Z,921.9
2017-03-01T11:10:59.953Z,921.89
2017-03-01T11:12:14.364Z,921.89
2017-03-01T11:13:28.769Z,921.8
2017-03-01T11:14:43.180Z,921.83
2017-03-01T11:15:57.607Z,921.79
2017-03-01T11:17:12.037Z,921.81
2017-03-01T11:18:26.463Z,921.73
2017-03-01T11:19:40.878Z,921.81
2017-03-01T11:20:55.287Z,921.85
2017-03-01T11:22:09.041Z,921.9
2017-03-01T11:23:23.430Z,921.97
2017-03-01T11:24:37.214Z,921.96
2017-03-01T11:25:51.636Z,922
2017-03-01T11:27:06.476Z,922.06
2017-03-01T11:28:20.892Z,922
2017-03-01T11:29:35.295Z,921.98
2017-03-01T11:30:49.739Z,921.99
2017-03-01T11:32:03.510Z,921.97
2017-03-01T11:33:17.944Z,922.02
2017-03-01T11:34:32.373Z,922.07
2017-03-01T11:35:46.178Z,922.06
2017-03-01T11:36:59.917Z,922.1
2017-03-01T11:38:13.657Z,922.14
2017-03-01T11:39:28.107Z,922.06
2017-03-01T11:40:41.863Z,922.14
2017-03-01T11:41:56.285Z,922.12
2017-03-01T11:43:10.768Z,922.12
2017-03-01T11:44:25.188Z,922.13
2017-03-01T11:45:38.301Z,922.1
2017-03-01T11:46:52.750Z,922.19
2017-03-01T11:48:06.531Z,922.1
2017-03-01T11:49:20.340Z,922.13
2017-03-01T11:50:34.123Z,922.15
2017-03-01T11:51:47.929Z,921.91
2017-03-01T11:53:02.380Z,922.07
2017-03-01T11:54:16.789Z,922.13
2017-03-01T11:55:31.201Z,922.15
2017-03-01T11:56:44.325Z,922.19
2017-03-01T11:57:58.730Z,922.08
2017-03-01T11:59:13.162Z,922.16
2017-03-01T12:00:26.994Z,922.2
2017-03-01T12:01:41.440Z,922.23
2017-03-01T12:02:55.904Z,922.31
2017-03-01T12:04:10.349Z,922.22
2017-03-01T12:05:23.511Z,922.28
2017-03-01T12:06:37.308Z,922.26
2017-03-01T12:07:51.737Z,922.28
2017-03-01T12:09:06.197Z,922.26
2017-03-01T12:10:20.662Z,922.29
2017-03-01T12:11:34.474Z,922.22
2017-03-01T12:12:47.656Z,922.23
2017-03-01T12:14:02.235Z,922.24
2017-03-01T12:15:16.142Z,922.31
2017-03-01T12:16:30.620Z,922.28
2017-03-01T12:17:45.113Z,922.27
2017-03-01T12:18:58.972Z,922.31
2017-03-01T12:20:12.141Z,922.32
2017-03-01T12:21:26.572Z,922.28
2017-03-01T12:22:41.033Z,922.31
2017-03-01T12:23:55.495Z,922.31
2017-03-01T12:25:09.319Z,922.33
2017-03-01T12:26:23.774Z,922.28
2017-03-01T12:27:38.239Z,922.36
2017-03-01T12:28:52.060Z,922.31
2017-03-01T12:30:06.550Z,922.35
2017-03-01T12:31:21.013Z,922.32
2017-03-01T12:32:34.818Z,922.38
2017-03-01T12:33:49.305Z,922.34
2017-03-01T12:35:03.095Z,922.36
2017-03-01T12:36:17.582Z,922.37
2017-03-01T12:37:32.049Z,922.42
2017-03-01T12:38:45.874Z,922.42
2017-03-01T12:39:59.680Z,922.35
2017-03-01T12:41:13.483Z,922.37
2017-03-01T12:42:27.997Z,922.31
2017-03-01T12:43:55.308Z,922.4
2017-03-01T12:45:14.923Z,922.4
2017-03-01T12:46:29.390Z,922.36
2017-03-01T12:47:43.853Z,922.38
2017-03-01T12:48:57.643Z,922.36
2017-03-01T12:50:12.095Z,922.33
2017-03-01T12:51:26.531Z,922.29
2017-03-01T12:52:40.978Z,922.33
2017-03-01T12:53:54.791Z,922.3
2017-03-01T12:55:08.591Z,922.32
2017-03-01T12:56:23.062Z,922.27
2017-03-01T12:57:36.896Z,922.31
2017-03-01T12:58:51.374Z,922.32
2017-03-01T13:00:05.211Z,922.28
2017-03-01T13:01:19.000Z,922.31
2017-03-01T13:02:33.421Z,922.26
2017-03-01T13:03:47.851Z,922.35
2017-03-01T13:05:02.283Z,922.28
2017-03-01T13:06:16.037Z,922.39
2017-03-01T13:07:30.472Z,922.32
2017-03-01T13:08:44.891Z,922.31
2017-03-01T13:09:58.676Z,922.31
2017-03-01T13:11:12.555Z,922.38
2017-03-01T13:12:26.335Z,922.33
2017-03-01T13:13:39.470Z,922.33
2017-03-01T13:14:53.277Z,922.37
2017-03-01T13:16:07.072Z,922.34
2017-03-01T13:17:20.864Z,922.29
2017-03-01T13:18:35.285Z,922.33
2017-03-01T13:19:49.748Z,922.34
2017-03-01T13:21:01.637Z,922.27
2017-03-01T13:22:16.055Z,922.25
2017-03-01T13:23:29.869Z,922.3
2017-03-01T13:24:43.680Z,922.28
2017-03-01T13:25:56.864Z,922.17
2017-03-01T13:27:11.330Z,922.27
2017-03-01T13:28:25.139Z,922.39
2017-03-01T13:29:39.567Z,922.39
2017-03-01T13:30:54.024Z,922.36
2017-03-01T13:32:07.794Z,922.3
2017-03-01T13:33:22.205Z,922.36
2017-03-01T13:34:36.663Z,922.36
2017-03-01T13:35:51.083Z,922.4
2017-03-01T13:37:05.504Z,922.43
2017-03-01T13:38:19.926Z,922.46
2017-03-01T13:39:34.373Z,922.38
2017-03-01T13:40:48.838Z,922.43
2017-03-01T13:42:01.965Z,922.45
2017-03-01T13:43:16.383Z,922.37
2017-03-01T13:44:30.860Z,922.48
2017-03-01T13:45:44.009Z,922.42
2017-03-01T13:46:57.788Z,922.23
2017-03-01T13:48:12.232Z,922.31
2017-03-01T13:49:26.658Z,922.37
2017-03-01T13:50:40.451Z,922.43
2017-03-01T13:51:54.914Z,922.41
2017-03-01T13:53:08.715Z,922.4
2017-03-01T13:54:22.472Z,922.35
2017-03-01T13:55:36.218Z,922.43
2017-03-01T13:56:50.654Z,922.38
2017-03-01T13:58:05.057Z,922.46
2017-03-01T13:59:18.864Z,922.36
2017-03-01T14:00:33.290Z,922.37
2017-03-01T14:01:47.103Z,922.42
2017-03-01T14:03:01.542Z,922.44
2017-03-01T14:04:16.008Z,922.42
2017-03-01T14:05:29.144Z,922.4
2017-03-01T14:06:43.554Z,922.4
2017-03-01T14:07:57.366Z,922.33
2017-03-01T14:09:11.785Z,922.29
2017-03-01T14:10:25.581Z,922.3
2017-03-01T14:11:39.966Z,922.33
2017-03-01T14:12:53.116Z,922.27
2017-03-01T14:14:06.288Z,922.3
2017-03-01T14:15:20.090Z,922.29
2017-03-01T14:16:33.862Z,922.21
2017-03-01T14:17:47.659Z,922.27
2017-03-01T14:19:00.785Z,922.28
2017-03-01T14:20:13.925Z,922.27
2017-03-01T14:21:27.105Z,922.32
2017-03-01T14:22:41.588Z,922.3
2017-03-01T14:23:55.982Z,922.36
2017-03-01T14:25:09.816Z,922.33
2017-03-01T14:26:23.628Z,922.42
2017-03-01T14:27:38.058Z,922.48
2017-03-01T14:28:52.459Z,922.45
2017-03-01T14:30:06.882Z,922.46
2017-03-01T14:31:20.671Z,922.42
2017-03-01T14:32:35.114Z,922.42
2017-03-01T14:33:49.519Z,922.4
2017-03-01T14:35:03.359Z,922.39
2017-03-01T14:36:17.142Z,922.42
2017-03-01T14:37:31.575Z,922.49
2017-03-01T14:38:46.010Z,922.49
2017-03-01T14:39:59.182Z,922.4
2017-03-01T14:41:13.620Z,922.48
2017-03-01T14:42:28.026Z,922.54
2017-03-01T14:43:41.790Z,922.46
2017-03-01T14:44:56.197Z,922.32
2017-03-01T14:46:10.037Z,922.47
2017-03-01T14:47:23.238Z,922.43
2017-03-01T14:48:37.032Z,922.44
2017-03-01T14:49:50.835Z,922.38
2017-03-01T14:51:05.250Z,922.43
2017-03-01T14:52:19.067Z,922.46
2017-03-01T14:53:32.836Z,922.47
2017-03-01T14:54:47.245Z,922.45
2017-03-01T14:56:01.685Z,922.46
2017-03-01T14:57:16.128Z,922.45
2017-03-01T14:58:29.931Z,922.56
2017-03-01T14:59:43.733Z,922.49
2017-03-01T15:00:57.497Z,922.49
2017-03-01T15:02:11.953Z,922.46
2017-03-01T15:03:26.374Z,922.46
2017-03-01T15:04:40.809Z,922.36
2017-03-01T15:05:53.969Z,922.37
2017-03-01T15:07:07.722Z,922.41
2017-03-01T15:08:22.110Z,922.4
2017-03-01T15:09:35.249Z,922.43
2017-03-01T15:10:49.705Z,922.37
2017-03-01T15:12:04.154Z,922.34
2017-03-01T15:13:18.572Z,922.34
2017-03-01T15:14:32.968Z,922.35
2017-03-01T15:15:47.411Z,922.32
2017-03-01T15:17:01.816Z,922.32
2017-03-01T15:18:16.221Z,922.26
2017-03-01T15:19:30.002Z,922.33
2017-03-01T15:20:43.775Z,922.28
2017-03-01T15:21:56.272Z,922.29
2017-03-01T15:23:10.750Z,922.27
2017-03-01T15:24:24.533Z,922.18
2017-03-01T15:25:38.982Z,922.28
2017-03-01T15:26:52.785Z,922.21
2017-03-01T15:28:06.584Z,922.23
2017-03-01T15:29:20.413Z,922.18
2017-03-01T15:30:32.927Z,922.1